Disclaimer

Please do not use the information listed here in-flight or in-navigation, as they are not provided to us by the airports but are provided by volunteers, so they might be outdated.

Search


Regions


Airport information page

Radio informations:
RDO - 122.2 MHz
QUEBEC RDO - 126.7 MHz
MF - 122.2 MHz

Airport informations:
Latitude: 48° 31' 12.00" N
Longitude: 072° 15' 56.00" W
Elevation: 586 feet - 179 meters
Operating hours: N/A
Operating agency: Municipal
Timezone: Second Sunday in March at 0200 to first Sunday in November at 0200 local time (Exception Arizona and that portion of Indiana in the Eastern Time Zone)
Fuel: Jet B, Wide cut turbine fuel, Without icing inhibitor.

100/130 MIL Spec, low lead, aviation gasoline (BLUE)

Runway information:
16/34 - 5000 x 150 feet< - >1524 x 46 meters

Recent METARs:
CYRJ 200200Z 00000KT 25SM FEW080 M35/M39 A3043 RMK AC1 LAST OBS/NEXT 201000 UTC SLP335
CYRJ 200200Z 00000KT 25SM FEW080 M35/M39 A3043 RMK AC1 LAST OBS/NEXT 201000 UTC SLP335
CYRJ 200200Z 00000KT 25SM FEW080 M35/M39 A3043 RMK AC1 LAST OBS/NEXT 201000 UTC SLP335

Airport on the map: